Flight Briefing for CPX962

Departure Arrival
Joint Base McGuire Dix Lakehurst (KWRI)
Click to view FAA NOTAMS
Washington Dulles International Airport (KIAD)
Click to view FAA NOTAMS
Departure Time Arrival Time
N/A N/A
Aircraft Distance
B767-300BDSF 151nm
Departure METAR Arrival METAR
KWRI 252343Z AUTO 36008KT 10SM OVC035 06/03 A3004 RMK AO2 RAE09RAB33E43 SLP173 $ KIAD 252252Z 36011KT 7SM FEW012 BKN017 OVC055 09/06 A3002 RMK AO2 RAB2154E43 SLP167 P0000 T00890061
Suggested Route
MXE


View recent IFR Routes data
Notes
EMPTY | NON-REVENUE REPOSITIONING LEG

Charts and Procedures

Charts for KWRI
No chart available
Charts for KIAD
No chart available

Windy.com Weather Map